Map

Track Data

SID SEASON NUMBER BASIN SUBBASIN NAME ISO_TIME NATURE LAT LON WMO_WIND WMO_PRES WMO_AGENCY TRACK_TYPE DIST2LAND LANDFALL IFLAG USA_AGENCY USA_ATCF_ID USA_LAT USA_LON USA_RECORD USA_STATUS USA_WIND USA_PRES USA_SSHS USA_R34_NE USA_R34_SE USA_R34_SW USA_R34_NW USA_R50_NE USA_R50_SE USA_R50_SW USA_R50_NW USA_R64_NE USA_R64_SE USA_R64_SW USA_R64_NW USA_POCI USA_ROCI USA_RMW USA_EYE TOKYO_LAT TOKYO_LON TOKYO_GRADE TOKYO_WIND TOKYO_PRES TOKYO_R50_DIR TOKYO_R50_LONG TOKYO_R50_SHORT TOKYO_R30_DIR TOKYO_R30_LONG TOKYO_R30_SHORT TOKYO_LAND CMA_LAT CMA_LON CMA_CAT CMA_WIND CMA_PRES HKO_LAT HKO_LON HKO_CAT HKO_WIND HKO_PRES NEWDELHI_LAT NEWDELHI_LON NEWDELHI_GRADE NEWDELHI_WIND NEWDELHI_PRES NEWDELHI_CI NEWDELHI_DP NEWDELHI_POCI REUNION_LAT REUNION_LON REUNION_TYPE REUNION_WIND REUNION_PRES REUNION_TNUM REUNION_CI REUNION_RMW REUNION_R34_NE REUNION_R34_SE REUNION_R34_SW REUNION_R34_NW REUNION_R50_NE REUNION_R50_SE REUNION_R50_SW REUNION_R50_NW REUNION_R64_NE REUNION_R64_SE REUNION_R64_SW REUNION_R64_NW BOM_LAT BOM_LON BOM_TYPE BOM_WIND BOM_PRES BOM_TNUM BOM_CI BOM_RMW BOM_R34_NE BOM_R34_SE BOM_R34_SW BOM_R34_NW BOM_R50_NE BOM_R50_SE BOM_R50_SW BOM_R50_NW BOM_R64_NE BOM_R64_SE BOM_R64_SW BOM_R64_NW BOM_ROCI BOM_POCI BOM_EYE BOM_POS_METHOD BOM_PRES_METHOD NADI_LAT NADI_LON NADI_CAT NADI_WIND NADI_PRES WELLINGTON_LAT WELLINGTON_LON WELLINGTON_WIND WELLINGTON_PRES DS824_LAT DS824_LON DS824_STAGE DS824_WIND DS824_PRES TD9636_LAT TD9636_LON TD9636_STAGE TD9636_WIND TD9636_PRES TD9635_LAT TD9635_LON TD9635_WIND TD9635_PRES TD9635_ROCI NEUMANN_LAT NEUMANN_LON NEUMANN_CLASS NEUMANN_WIND NEUMANN_PRES MLC_LAT MLC_LON MLC_CLASS MLC_WIND MLC_PRES USA_GUST BOM_GUST BOM_GUST_PER REUNION_GUST REUNION_GUST_PER USA_SEAHGT USA_SEARAD_NE USA_SEARAD_SE USA_SEARAD_SW USA_SEARAD_NW STORM_SPEED STORM_DIR
2021205N25149 2021 35 WP MM NEPARTAK 2021-07-24 00:00:00 SS 24.8500 149.450 PROVISIONAL 1442 1424 O_____________ tcvitals WP112021 25.0000 149.500 35 989 0 155 185 1003 180 100 6 12
2021205N25149 2021 35 WP MM NEPARTAK 2021-07-24 03:00:00 SS 25.1617 149.531 PROVISIONAL 1415 1394 P_____________ WP112021 25.4208 149.512 -5 1003 265 117 7 12
2021205N25149 2021 35 WP MM NEPARTAK 2021-07-24 06:00:00 SS 25.5229 149.613 PROVISIONAL 1394 1365 O_____________ tcvitals WP112021 25.8458 149.527 -5 1003 350 135 8 11
2021205N25149 2021 35 WP MM NEPARTAK 2021-07-24 09:00:00 SS 25.9675 149.699 PROVISIONAL 1356 1328 P_____________ WP112021 26.2801 149.548 -5 1003 350 135 10 10
2021205N25149 2021 35 WP MM NEPARTAK 2021-07-24 12:00:00 SS 26.4666 149.791 PROVISIONAL 1319 1292 O_____________ tcvitals WP112021 26.7332 149.582 -5 1003 350 135 10 11
2021205N25149 2021 35 WP MM NEPARTAK 2021-07-24 15:00:00 SS 26.9502 149.904 PROVISIONAL 1284 1250 P_____________ WP112021 27.2029 149.628 -5 1003 350 127 11 10
2021205N25149 2021 35 WP MM NEPARTAK 2021-07-24 18:00:00 SS 27.5020 149.998 PROVISIONAL 1250 1195 O_____________ tcvitals WP112021 27.7039 149.696 -5 1003 350 120 13 5
2021205N25149 2021 35 WP MM NEPARTAK 2021-07-24 21:00:00 SS 28.1910 150.022 PROVISIONAL 1195 1147 P_____________ WP112021 28.2321 149.785 -5 1002 345 120 14 3
2021205N25149 2021 35 WP MM NEPARTAK 2021-07-25 00:00:00 SS 28.9143 150.071 PROVISIONAL 1147 1110 O_____________ tcvitals WP112021 28.8000 149.900 35 996 0 320 290 1002 340 120 14 7
2021205N25149 2021 35 WP MM NEPARTAK 2021-07-25 03:00:00 SS 29.5323 150.202 PROVISIONAL 1110 1081 P_____________ WP112021 29.4126 150.037 35 995 0 220 257 1002 340 135 12 12
2021205N25149 2021 35 WP MM NEPARTAK 2021-07-25 06:00:00 SS 30.0871 150.358 PROVISIONAL 1082 1049 I_____________ tcvitals WP112021 30.0355 150.189 35 995 0 120 225 1002 340 150 12 11
2021205N25149 2021 35 WP MM NEPARTAK 2021-07-25 09:00:00 SS 30.6875 150.465 PROVISIONAL 1050 1020 P_____________ WP112021 30.6654 150.366 35 995 0 167 330 1002 340 135 11 6
2021205N25149 2021 35 WP MM NEPARTAK 2021-07-25 12:00:00 SS 31.2000 150.500 PROVISIONAL 1020 1002 O_____________ tcgp WP112021 31.2000 150.500 SS 35 995 -2 215 435 70 1002 340 120 8 4
2021205N25149 2021 35 WP MM NEPARTAK 2021-07-25 15:00:00 SS 31.5000 150.522 PROVISIONAL 1002 986 P_____________ WP112021 31.5048 150.538 SS 35 995 -2 237 392 1002 340 120 6 1
2021205N25149 2021 35 WP MM NEPARTAK 2021-07-25 18:00:00 SS 31.8000 150.500 PROVISIONAL 986 960 O_____________ tcgp WP112021 31.8000 150.500 SS 35 995 -2 260 350 1002 340 120 8 358
2021205N25149 2021 35 WP MM NEPARTAK 2021-07-25 21:00:00 SS 32.2968 150.511 PROVISIONAL 960 915 P_____________ WP112021 32.2968 150.511 SS 35 995 -2 260 350 1002 345 125 11 351
2021205N25149 2021 35 WP MM NEPARTAK 2021-07-26 00:00:00 SS 32.9000 150.300 PROVISIONAL 915 836 O_____________ tcgp WP112021 32.9000 150.300 SS 35 995 -2 260 350 1002 350 130 15 332
2021205N25149 2021 35 WP MM NEPARTAK 2021-07-26 03:00:00 SS 33.6025 149.688 PROVISIONAL 836 746 P_____________ WP112021 33.6025 149.688 SS 35 995 -2 192 1002 350 127 18 316
2021205N25149 2021 35 WP MM NEPARTAK 2021-07-26 06:00:00 SS 34.2000 148.800 PROVISIONAL 737 649 O_____________ tcgp WP112021 34.2000 148.800 SS 35 996 -2 125 1002 350 125 45 18 299
2021205N25149 2021 35 WP MM NEPARTAK 2021-07-26 09:00:00 SS 34.4675 147.835 PROVISIONAL 640 557 P_____________ WP112021 34.4675 147.835 SS 35 993 -2 212 1001 300 125 17 284
2021205N25149 2021 35 WP MM NEPARTAK 2021-07-26 12:00:00 SS 34.6000 146.800 PROVISIONAL 548 461 O_____________ tcgp WP112021 34.6000 146.800 SS 35 990 -2 300 150 1000 250 125 17 283
2021205N25149 2021 35 WP MM NEPARTAK 2021-07-26 15:00:00 SS 34.8666 145.802 PROVISIONAL 452 370 P_____________ WP112021 34.8667 145.802 SS 37 987 -2 167 1001 250 112 17 284
2021205N25149 2021 35 WP MM NEPARTAK 2021-07-26 18:00:00 SS 35.0000 144.800 PROVISIONAL 361 272 O_____________ tcgp WP112021 35.0000 144.800 SS 40 985 -2 180 185 1002 250 100 18 266
2021205N25149 2021 35 WP MM NEPARTAK 2021-07-26 21:00:00 SS 34.7514 143.669 PROVISIONAL 272 218 P_____________ WP112021 34.7514 143.669 SS 40 986 -2 175 177 1000 242 105 17 253
2021205N25149 2021 35 WP MM NEPARTAK 2021-07-27 00:00:00 SS 34.5000 142.800 PROVISIONAL 218 189 O_____________ tcgp WP112021 34.5000 142.800 SS 40 988 -2 170 170 998 235 110 10 261
2021205N25149 2021 35 WP MM NEPARTAK 2021-07-27 03:00:00 SS 34.5936 142.516 PROVISIONAL 189 170 P_____________ WP112021 34.5936 142.516 SS 42 987 -2 130 117 998 235 82 5 328
2021205N25149 2021 35 WP MM NEPARTAK 2021-07-27 06:00:00 SS 34.9000 142.500 PROVISIONAL 170 142 O_____________ tcgp WP112021 34.9000 142.500 SS 45 987 -2 110 140 90 65 998 235 55 8 352
2021205N25149 2021 35 WP MM NEPARTAK 2021-07-27 09:00:00 SS 35.3350 142.393 PROVISIONAL 142 126 P_____________ WP112021 35.3350 142.393 SS 45 987 -2 112 140 90 65 998 212 52 9 350
2021205N25149 2021 35 WP MM NEPARTAK 2021-07-27 12:00:00 SS 35.8000 142.300 PROVISIONAL 126 119 O_____________ tcgp WP112021 35.8000 142.300 SS 45 988 -2 115 140 90 65 998 190 50 8 348
2021205N25149 2021 35 WP MM NEPARTAK 2021-07-27 15:00:00 SS 36.0775 142.192 PROVISIONAL 125 118 P_____________ WP112021 36.0775 142.192 SS 40 987 -2 112 117 999 162 47 6 345
2021205N25149 2021 35 WP MM NEPARTAK 2021-07-27 18:00:00 SS 36.4000 142.100 PROVISIONAL 118 98 O_____________ tcgp WP112021 36.4000 142.100 SS 35 986 -2 110 95 1000 135 45 9 353
2021205N25149 2021 35 WP MM NEPARTAK 2021-07-27 21:00:00 SS 36.9325 142.064 PROVISIONAL 98 87 P_____________ WP112021 36.9325 142.064 SS 35 986 -2 100 97 999 107 45 12 356
2021205N25149 2021 35 WP MM NEPARTAK 2021-07-28 00:00:00 SS 37.6000 142.000 PROVISIONAL 88 34 O_____________ tcgp WP112021 37.6000 142.000 SS 35 986 -2 90 100 90 999 80 45 14 355
2021205N25149 2021 35 WP MM NEPARTAK 2021-07-28 03:00:00 SS 38.3569 141.889 PROVISIONAL 34 0 P_____________ WP112021 38.3569 141.889 SS 32 986 -2 999 72 40 15 348
2021205N25149 2021 35 WP MM NEPARTAK 2021-07-28 06:00:00 SS 39.1000 141.600 PROVISIONAL 0 0 O_____________ tcgp WP112021 39.1000 141.600 SD 30 987 -2 1000 65 35 15 334
2021205N25149 2021 35 WP MM NEPARTAK 2021-07-28 09:00:00 SS 39.7097 141.055 PROVISIONAL 0 0 P_____________ WP112021 39.7097 141.055 SD 30 992 -2 999 62 35 15 318
2021205N25149 2021 35 WP MM NEPARTAK 2021-07-28 12:00:00 SS 40.2000 140.300 PROVISIONAL 0 0 O_____________ tcgp WP112021 40.2000 140.300 SD 30 997 -2 999 60 35 16 306
2021205N25149 2021 35 WP MM NEPARTAK 2021-07-28 15:00:00 SS 40.6411 139.386 PROVISIONAL 42 42 P_____________ WP112021 40.6411 139.386 SD 27 994 -2 1000 67 42 15 297
2021205N25149 2021 35 WP MM NEPARTAK 2021-07-28 18:00:00 SS 40.9000 138.500 PROVISIONAL 122 122 O_____________ tcgp WP112021 40.9000 138.500 SD 25 991 -2 1001 75 50 12 283
2021205N25149 2021 35 WP MM NEPARTAK 2021-07-28 21:00:00 SS 40.9092 137.858 PROVISIONAL 171 171 P_____________ WP112021 40.9092 137.858 SD 22 992 -2 1001 75 50 8 263
2021205N25149 2021 35 WP MM NEPARTAK 2021-07-29 00:00:00 SS 40.8000 137.400 PROVISIONAL 211 211 O_____________ tcgp WP112021 40.8000 137.400 SD 20 993 -2 1001 75 50 6 255
2021205N25149 2021 35 WP MM NEPARTAK 2021-07-29 03:00:00 SS 40.7422 137.040 PROVISIONAL 244 244 P_____________ WP112021 40.7422 137.040 SD 20 989 -2 1001 75 50 5 258
2021205N25149 2021 35 WP MM NEPARTAK 2021-07-29 06:00:00 SS 40.7000 136.800 PROVISIONAL 260 260 O_____________ tcgp WP112021 40.7000 136.800 SD 20 986 -2 1001 75 50 3 260
2021205N25149 2021 35 WP MM NEPARTAK 2021-07-29 09:00:00 SS 40.6901 136.633 PROVISIONAL 276 276 P_____________ WP112021 40.6901 136.633 SD 20 992 -2 1001 100 50 2 270
2021205N25149 2021 35 WP MM NEPARTAK 2021-07-29 12:00:00 SS 40.7000 136.500 PROVISIONAL 284 O_____________ tcgp WP112021 40.7000 136.500 SD 20 999 -2 1001 125 50 2 276

Digital Typhoon Data and Search

About IBTrACS Database

This database is a web-friendly format of International Best Track Archive for Climate Stewardship (IBTrACS), a global best track data archive curated by NOAA dating back to 1842.

Updated: 2022-10-05